Time;durP1;ratioP1;P1;durP2;ratioP2;P2;SDS_P1;SDS_P2;PMS_P1;PMS_P2;Temp;Humidity;BMP_temperature;BMP_pressure;BME280_temperature;BME280_humidity;BME280_pressure;Samples;Min_cycle;Max_cycle;Signal;HPM_P1;HPM_P2
2022/01/06 00:00:16;;;;;;;6.85;5.55;;;;;;;;;;5045992;28;20032;-32
2022/01/06 00:02:42;;;;;;;8.50;6.45;;;;;;;;;;5045449;28;20632;-33
2022/01/06 00:05:07;;;;;;;6.72;6.00;;;;;;;;;;5045735;28;20032;-38
2022/01/06 00:07:33;;;;;;;7.40;5.93;;;;;;;;;;5045021;28;20095;-32
2022/01/06 00:09:59;;;;;;;8.45;5.70;;;;;;;;;;5045676;28;20067;-36
2022/01/06 00:12:33;;;;;;;6.68;5.80;;;;;;;;;;5045422;28;20028;-32
2022/01/06 00:25:18;;;;;;;5.70;5.07;;;;;;;;;;5045349;28;20568;-34
2022/01/06 00:27:43;;;;;;;5.88;4.75;;;;;;;;;;5045445;28;20069;-31
2022/01/06 00:30:09;;;;;;;6.50;4.95;;;;;;;;;;5045713;28;20033;-31
2022/01/06 00:32:35;;;;;;;5.78;5.20;;;;;;;;;;5045118;28;20491;-32
2022/01/06 00:35:00;;;;;;;6.35;5.30;;;;;;;;;;5045528;28;20032;-33
2022/01/06 00:37:27;;;;;;;5.65;4.78;;;;;;;;;;5045186;28;20047;-28
2022/01/06 00:39:52;;;;;;;5.50;5.00;;;;;;;;;;5045331;28;20554;-31
2022/01/06 00:42:18;;;;;;;5.95;5.35;;;;;;;;;;5045178;28;20107;-30
2022/01/06 00:44:43;;;;;;;8.18;5.03;;;;;;;;;;5043639;28;20037;-35
2022/01/06 00:47:09;;;;;;;5.72;4.90;;;;;;;;;;5034362;28;20058;-32
2022/01/06 00:49:34;;;;;;;5.93;4.78;;;;;;;;;;5025346;28;20056;-33
2022/01/06 00:52:00;;;;;;;5.47;4.53;;;;;;;;;;5025035;28;20026;-34
2022/01/06 00:54:25;;;;;;;6.25;4.50;;;;;;;;;;5024756;28;20040;-34
2022/01/06 00:56:51;;;;;;;7.25;4.50;;;;;;;;;;5023525;28;20029;-30
2022/01/06 00:59:16;;;;;;;5.18;4.45;;;;;;;;;;5025351;28;20031;-31
2022/01/06 01:01:42;;;;;;;6.10;4.60;;;;;;;;;;5024909;28;20073;-31
2022/01/06 01:04:07;;;;;;;5.18;4.47;;;;;;;;;;5024610;28;20029;-32
2022/01/06 01:06:33;;;;;;;5.75;4.85;;;;;;;;;;5024821;28;20025;-31
2022/01/06 01:08:58;;;;;;;5.22;4.72;;;;;;;;;;5024548;28;20492;-32
2022/01/06 01:11:24;;;;;;;4.85;4.22;;;;;;;;;;5024800;28;20496;-29
2022/01/06 01:13:56;;;;;;;6.80;4.43;;;;;;;;;;5024267;28;20090;-34
2022/01/06 01:16:30;;;;;;;4.97;4.45;;;;;;;;;;5024313;28;20022;-35
2022/01/06 01:18:57;;;;;;;4.72;4.05;;;;;;;;;;5025147;28;20040;-36
2022/01/06 01:21:26;;;;;;;4.88;4.30;;;;;;;;;;5024462;28;20546;-30
2022/01/06 01:23:52;;;;;;;4.80;3.85;;;;;;;;;;5024294;28;20407;-29
2022/01/06 01:26:18;;;;;;;4.88;4.30;;;;;;;;;;5023423;28;20064;-34
2022/01/06 01:28:45;;;;;;;6.68;3.67;;;;;;;;;;5024109;28;20495;-32
2022/01/06 01:33:44;;;;;;;4.00;3.60;;;;;;;;;;5027594;28;20041;-31
2022/01/06 01:36:10;;;;;;;3.88;3.47;;;;;;;;;;5044353;28;20123;-35
2022/01/06 01:38:37;;;;;;;4.63;3.83;;;;;;;;;;5043755;28;20199;-30
2022/01/06 01:41:03;;;;;;;3.90;3.50;;;;;;;;;;5044079;28;20036;-34
2022/01/06 01:43:29;;;;;;;4.13;3.58;;;;;;;;;;5032656;28;20120;-34
2022/01/06 01:45:57;;;;;;;3.80;3.40;;;;;;;;;;5027943;28;20108;-32
2022/01/06 01:48:30;;;;;;;3.63;3.33;;;;;;;;;;5040259;28;20505;-29
2022/01/06 01:50:56;;;;;;;4.13;3.60;;;;;;;;;;5024298;28;20052;-32
2022/01/06 01:53:21;;;;;;;3.53;3.05;;;;;;;;;;5023855;28;20893;-29
2022/01/06 01:55:47;;;;;;;4.47;3.58;;;;;;;;;;5023781;28;20112;-29
2022/01/06 01:58:12;;;;;;;5.88;3.50;;;;;;;;;;5024009;28;20363;-31
2022/01/06 02:00:38;;;;;;;7.47;3.22;;;;;;;;;;5024102;28;20040;-32
2022/01/06 02:03:06;;;;;;;3.88;3.13;;;;;;;;;;5023570;28;20497;-32
2022/01/06 02:05:32;;;;;;;5.07;3.50;;;;;;;;;;5023448;28;20126;-30
2022/01/06 02:08:01;;;;;;;4.18;3.22;;;;;;;;;;5023417;28;20123;-32
2022/01/06 02:10:27;;;;;;;3.40;3.10;;;;;;;;;;5022121;28;20033;-33
2022/01/06 02:12:55;;;;;;;5.50;3.28;;;;;;;;;;5023497;28;20059;-31
2022/01/06 02:15:21;;;;;;;4.53;3.30;;;;;;;;;;5023223;28;20515;-33
2022/01/06 02:17:47;;;;;;;10.75;3.17;;;;;;;;;;5023196;28;20029;-30
2022/01/06 02:20:14;;;;;;;3.80;3.22;;;;;;;;;;5022093;28;20316;-31
2022/01/06 02:22:39;;;;;;;4.30;3.10;;;;;;;;;;5023266;28;20041;-35
2022/01/06 02:25:11;;;;;;;3.42;2.90;;;;;;;;;;5023061;28;20037;-35
2022/01/06 02:27:37;;;;;;;2.97;2.67;;;;;;;;;;5022938;28;20044;-31
2022/01/06 02:30:03;;;;;;;5.13;2.97;;;;;;;;;;5023405;28;20037;-35
2022/01/06 02:32:29;;;;;;;3.85;3.17;;;;;;;;;;5023043;28;20168;-31
2022/01/06 02:34:54;;;;;;;5.30;3.20;;;;;;;;;;5023509;28;20462;-35
2022/01/06 02:37:20;;;;;;;3.60;3.30;;;;;;;;;;5022610;28;20759;-35
2022/01/06 02:39:45;;;;;;;4.40;3.13;;;;;;;;;;5023467;28;20033;-33
2022/01/06 02:42:11;;;;;;;3.25;2.95;;;;;;;;;;5023732;28;20570;-33
2022/01/06 02:44:38;;;;;;;4.20;3.10;;;;;;;;;;5027158;28;20867;-32
2022/01/06 02:47:05;;;;;;;3.55;2.90;;;;;;;;;;5027435;28;20033;-34
2022/01/06 02:49:30;;;;;;;4.93;3.40;;;;;;;;;;5023308;28;20113;-36
2022/01/06 02:51:56;;;;;;;3.70;3.20;;;;;;;;;;5023124;28;20419;-37
2022/01/06 02:54:21;;;;;;;4.43;3.10;;;;;;;;;;5022887;28;20021;-34
2022/01/06 02:56:48;;;;;;;3.38;3.08;;;;;;;;;;5022978;28;20128;-35
2022/01/06 02:59:14;;;;;;;3.90;3.35;;;;;;;;;;5022160;28;20021;-34
2022/01/06 03:01:40;;;;;;;4.50;3.22;;;;;;;;;;5022408;28;20574;-34
2022/01/06 03:04:06;;;;;;;4.18;3.08;;;;;;;;;;5022807;28;20044;-30
2022/01/06 03:06:32;;;;;;;4.40;3.28;;;;;;;;;;5022672;28;20025;-35
2022/01/06 03:08:57;;;;;;;3.45;3.08;;;;;;;;;;5022785;28;20050;-33
2022/01/06 03:11:26;;;;;;;3.05;2.72;;;;;;;;;;5022639;28;20041;-32
2022/01/06 03:13:54;;;;;;;6.10;3.00;;;;;;;;;;5022856;28;20079;-33
2022/01/06 03:16:20;;;;;;;7.70;2.75;;;;;;;;;;5022578;28;20111;-29
2022/01/06 03:18:45;;;;;;;3.78;3.20;;;;;;;;;;5022778;28;20025;-29
2022/01/06 03:21:11;;;;;;;5.10;2.90;;;;;;;;;;5022356;28;20051;-30
2022/01/06 03:23:36;;;;;;;3.95;3.13;;;;;;;;;;5036317;28;20157;-31
2022/01/06 03:26:02;;;;;;;3.05;2.58;;;;;;;;;;5042460;28;20033;-34
2022/01/06 03:28:28;;;;;;;5.97;3.05;;;;;;;;;;5041783;28;20033;-33
2022/01/06 03:30:53;;;;;;;2.92;2.63;;;;;;;;;;5042366;28;20094;-31
2022/01/06 03:33:19;;;;;;;8.00;2.80;;;;;;;;;;5042311;28;20029;-31
2022/01/06 03:35:44;;;;;;;6.03;2.78;;;;;;;;;;5042273;28;20029;-34
2022/01/06 03:38:10;;;;;;;3.42;3.10;;;;;;;;;;5042648;28;20791;-33
2022/01/06 03:40:35;;;;;;;5.05;2.90;;;;;;;;;;5057300;28;20021;-36
2022/01/06 03:43:01;;;;;;;3.65;2.80;;;;;;;;;;5029830;28;20033;-30
2022/01/06 03:45:26;;;;;;;3.55;2.70;;;;;;;;;;5031937;28;20379;-35
2022/01/06 03:47:52;;;;;;;4.20;2.83;;;;;;;;;;5022600;28;20030;-35
2022/01/06 03:50:18;;;;;;;3.90;2.75;;;;;;;;;;5022445;28;20033;-32
2022/01/06 03:52:43;;;;;;;3.53;2.90;;;;;;;;;;5037353;28;20611;-32
2022/01/06 03:55:11;;;;;;;2.72;2.53;;;;;;;;;;5023932;28;20040;-33
2022/01/06 03:57:36;;;;;;;3.40;2.97;;;;;;;;;;5025870;28;20040;-34
2022/01/06 04:00:04;;;;;;;2.60;2.40;;;;;;;;;;5026542;28;20026;-32
2022/01/06 04:02:30;;;;;;;3.88;2.40;;;;;;;;;;5024562;28;20025;-34
2022/01/06 04:04:55;;;;;;;5.22;2.60;;;;;;;;;;5026426;28;20025;-31
2022/01/06 04:07:21;;;;;;;3.50;2.65;;;;;;;;;;5025589;28;20057;-32
2022/01/06 04:09:46;;;;;;;3.78;2.70;;;;;;;;;;5025212;28;20042;-30
2022/01/06 04:12:12;;;;;;;2.90;2.47;;;;;;;;;;5025984;28;20025;-29
2022/01/06 04:14:37;;;;;;;5.53;2.50;;;;;;;;;;5025781;28;20037;-34
2022/01/06 04:17:07;;;;;;;3.47;2.38;;;;;;;;;;5025890;28;20489;-30
2022/01/06 04:19:35;;;;;;;5.18;2.50;;;;;;;;;;5025109;28;20083;-31
2022/01/06 04:22:01;;;;;;;5.10;2.30;;;;;;;;;;5025538;28;20104;-30
2022/01/06 04:24:26;;;;;;;5.88;2.20;;;;;;;;;;5025472;28;20108;-32
2022/01/06 04:26:52;;;;;;;3.17;2.22;;;;;;;;;;5025389;28;20472;-32
2022/01/06 04:29:17;;;;;;;3.00;1.98;;;;;;;;;;5025385;28;20029;-31
2022/01/06 04:31:42;;;;;;;2.83;1.90;;;;;;;;;;5025532;28;20411;-31
2022/01/06 04:34:08;;;;;;;2.50;1.90;;;;;;;;;;5025563;28;20030;-37
2022/01/06 04:36:33;;;;;;;2.15;1.80;;;;;;;;;;5025349;28;20033;-30
2022/01/06 04:38:59;;;;;;;6.43;5.35;;;;;;;;;;5025537;28;20094;-35
2022/01/06 04:41:24;;;;;;;7.78;3.67;;;;;;;;;;5025417;28;21832;-34
2022/01/06 04:43:50;;;;;;;6.13;3.42;;;;;;;;;;5025748;28;20033;-35
2022/01/06 04:46:15;;;;;;;3.75;3.28;;;;;;;;;;5025947;28;20103;-35
2022/01/06 04:48:41;;;;;;;6.80;2.72;;;;;;;;;;5040439;28;20037;-32
2022/01/06 04:51:07;;;;;;;3.33;2.88;;;;;;;;;;5044988;28;20042;-32
2022/01/06 04:53:33;;;;;;;3.45;2.83;;;;;;;;;;5044641;28;20469;-31
2022/01/06 04:56:00;;;;;;;4.07;2.97;;;;;;;;;;5044793;28;20021;-36
2022/01/06 04:58:26;;;;;;;3.38;2.78;;;;;;;;;;5044795;28;20032;-29
2022/01/06 05:00:52;;;;;;;13.85;2.90;;;;;;;;;;5044789;28;20025;-33
2022/01/06 05:03:17;;;;;;;5.57;2.90;;;;;;;;;;5044262;28;20028;-32
2022/01/06 05:05:43;;;;;;;9.05;3.20;;;;;;;;;;5044309;28;20020;-28
2022/01/06 05:08:08;;;;;;;5.72;3.08;;;;;;;;;;5044109;28;20041;-31
2022/01/06 05:10:34;;;;;;;5.80;3.10;;;;;;;;;;5044372;28;20032;-32
2022/01/06 05:12:59;;;;;;;7.50;3.10;;;;;;;;;;5044622;28;20025;-33
2022/01/06 05:15:25;;;;;;;6.10;2.85;;;;;;;;;;5044546;28;20029;-32
2022/01/06 05:17:50;;;;;;;3.80;2.60;;;;;;;;;;5044762;28;20033;-37
2022/01/06 05:20:16;;;;;;;3.50;2.80;;;;;;;;;;5044274;28;20082;-32
2022/01/06 05:22:44;;;;;;;4.53;2.67;;;;;;;;;;5044543;28;20029;-29
2022/01/06 05:25:11;;;;;;;3.67;3.17;;;;;;;;;;5044400;28;20094;-29
2022/01/06 05:27:36;;;;;;;3.05;2.75;;;;;;;;;;5043963;28;20041;-35
2022/01/06 05:30:02;;;;;;;4.85;2.83;;;;;;;;;;5044205;28;20025;-35
2022/01/06 05:32:28;;;;;;;6.10;2.90;;;;;;;;;;5044178;28;20045;-34
2022/01/06 05:34:53;;;;;;;6.28;3.28;;;;;;;;;;5044037;28;20601;-32
2022/01/06 05:37:19;;;;;;;5.32;2.65;;;;;;;;;;5044099;28;20056;-28
2022/01/06 05:39:44;;;;;;;5.43;2.75;;;;;;;;;;5044026;28;20402;-32
2022/01/06 05:42:13;;;;;;;13.13;3.00;;;;;;;;;;5032247;28;20036;-34
2022/01/06 05:44:40;;;;;;;11.15;3.28;;;;;;;;;;5028681;28;20482;-32
2022/01/06 05:47:06;;;;;;;12.52;2.65;;;;;;;;;;5039065;28;20037;-31
2022/01/06 05:49:33;;;;;;;6.45;2.70;;;;;;;;;;5024264;28;20037;-32
2022/01/06 05:51:58;;;;;;;13.43;3.20;;;;;;;;;;5023917;28;20025;-29
2022/01/06 05:54:24;;;;;;;8.63;2.45;;;;;;;;;;5024123;28;20025;-31
2022/01/06 05:56:49;;;;;;;9.13;2.90;;;;;;;;;;5023710;28;20125;-30
2022/01/06 05:59:15;;;;;;;6.53;2.58;;;;;;;;;;5024336;28;20029;-32
2022/01/06 06:01:40;;;;;;;10.63;2.50;;;;;;;;;;5023563;28;20561;-33
2022/01/06 06:04:06;;;;;;;4.93;2.75;;;;;;;;;;5023885;28;20033;-33
2022/01/06 06:06:31;;;;;;;6.32;2.70;;;;;;;;;;5024257;28;20503;-29
2022/01/06 06:08:57;;;;;;;10.23;2.85;;;;;;;;;;5023718;28;20092;-30
2022/01/06 06:11:22;;;;;;;4.18;2.45;;;;;;;;;;5023493;28;20060;-35
2022/01/06 06:13:48;;;;;;;5.90;2.55;;;;;;;;;;5023878;28;20404;-31
2022/01/06 06:16:13;;;;;;;4.20;2.40;;;;;;;;;;5030715;28;20064;-35
2022/01/06 06:18:39;;;;;;;3.88;2.70;;;;;;;;;;5042461;28;20501;-31
2022/01/06 06:21:06;;;;;;;6.55;2.60;;;;;;;;;;5042947;28;20115;-31
2022/01/06 06:23:32;;;;;;;5.93;2.85;;;;;;;;;;5043504;28;20033;-29
2022/01/06 06:25:57;;;;;;;3.50;2.20;;;;;;;;;;5042968;28;20110;-31
2022/01/06 06:28:23;;;;;;;3.88;2.50;;;;;;;;;;5043443;28;20048;-33
2022/01/06 06:30:48;;;;;;;9.48;2.58;;;;;;;;;;5043533;28;20549;-34
2022/01/06 06:33:14;;;;;;;8.48;2.88;;;;;;;;;;5027224;28;20033;-30
2022/01/06 06:35:39;;;;;;;6.15;2.63;;;;;;;;;;5023187;28;20474;-33
2022/01/06 06:38:05;;;;;;;4.15;2.55;;;;;;;;;;5023399;28;20033;-31
2022/01/06 06:40:30;;;;;;;4.30;2.95;;;;;;;;;;5022292;28;20068;-31
2022/01/06 06:42:56;;;;;;;3.58;2.42;;;;;;;;;;5040844;28;20025;-32
2022/01/06 06:45:23;;;;;;;3.88;2.53;;;;;;;;;;5023956;28;20034;-35
2022/01/06 06:47:49;;;;;;;2.83;2.47;;;;;;;;;;5037648;28;20033;-32
2022/01/06 06:50:16;;;;;;;4.20;3.05;;;;;;;;;;5043157;28;20542;-30
2022/01/06 06:52:43;;;;;;;4.82;2.60;;;;;;;;;;5042955;28;20036;-34
2022/01/06 06:55:09;;;;;;;2.80;2.38;;;;;;;;;;5042893;28;20585;-31
2022/01/06 06:57:34;;;;;;;5.30;2.80;;;;;;;;;;5042606;28;20064;-32
2022/01/06 07:00:04;;;;;;;4.75;2.55;;;;;;;;;;5043439;28;20037;-30
2022/01/06 07:02:30;;;;;;;7.15;2.67;;;;;;;;;;5042678;28;20473;-31
2022/01/06 07:04:55;;;;;;;3.88;2.42;;;;;;;;;;5042857;28;20068;-29
2022/01/06 07:07:21;;;;;;;4.35;2.60;;;;;;;;;;5042830;28;20064;-32
2022/01/06 07:09:46;;;;;;;3.00;2.42;;;;;;;;;;5042488;28;20052;-30
2022/01/06 07:12:12;;;;;;;3.38;2.50;;;;;;;;;;5043186;28;20025;-30
2022/01/06 07:14:37;;;;;;;6.07;2.85;;;;;;;;;;5042789;28;20029;-34
2022/01/06 07:17:04;;;;;;;3.30;2.63;;;;;;;;;;5042524;28;20060;-29
2022/01/06 07:19:30;;;;;;;3.13;2.30;;;;;;;;;;5042261;28;20033;-29
2022/01/06 07:21:55;;;;;;;4.35;2.50;;;;;;;;;;5042973;28;20438;-28
2022/01/06 07:24:21;;;;;;;2.60;2.30;;;;;;;;;;5042528;28;20059;-34
2022/01/06 07:26:47;;;;;;;2.65;1.98;;;;;;;;;;5042894;28;20052;-31
2022/01/06 07:29:12;;;;;;;3.00;2.47;;;;;;;;;;5044898;28;20491;-28
2022/01/06 07:31:38;;;;;;;3.20;2.13;;;;;;;;;;5045232;28;20045;-32
2022/01/06 07:34:03;;;;;;;2.70;2.30;;;;;;;;;;5047069;28;20102;-35
2022/01/06 07:36:29;;;;;;;2.45;1.88;;;;;;;;;;5046226;28;20036;-30
2022/01/06 07:38:54;;;;;;;2.53;2.20;;;;;;;;;;5046356;28;20090;-30
2022/01/06 07:41:20;;;;;;;4.07;2.53;;;;;;;;;;5045510;28;20023;-29
2022/01/06 07:43:45;;;;;;;4.45;2.20;;;;;;;;;;5037228;28;20025;-31
2022/01/06 07:46:11;;;;;;;3.25;2.45;;;;;;;;;;5042142;28;20022;-29
2022/01/06 07:48:48;;;;;;;4.03;2.03;;;;;;;;;;5025989;28;20417;-31
2022/01/06 07:51:15;;;;;;;3.10;2.25;;;;;;;;;;5026876;28;20061;-30
2022/01/06 07:53:40;;;;;;;3.05;2.20;;;;;;;;;;5026259;28;20029;-33
2022/01/06 07:56:06;;;;;;;2.30;1.80;;;;;;;;;;5026677;28;20025;-34
2022/01/06 07:58:31;;;;;;;2.70;2.20;;;;;;;;;;5025947;28;20780;-28
2022/01/06 08:01:00;;;;;;;3.95;2.00;;;;;;;;;;5026247;28;20033;-34
2022/01/06 08:03:26;;;;;;;2.10;1.90;;;;;;;;;;5026031;28;20037;-28
2022/01/06 08:05:51;;;;;;;2.20;2.00;;;;;;;;;;5025076;28;20471;-29
2022/01/06 08:08:17;;;;;;;2.42;2.03;;;;;;;;;;5025765;28;20049;-32
2022/01/06 08:10:42;;;;;;;3.05;2.03;;;;;;;;;;5025579;28;20184;-34
2022/01/06 08:13:08;;;;;;;2.22;2.00;;;;;;;;;;5025981;28;20111;-31
2022/01/06 08:15:33;;;;;;;2.10;1.90;;;;;;;;;;5025764;28;20087;-28
2022/01/06 08:17:59;;;;;;;3.05;2.30;;;;;;;;;;5026133;28;20044;-30
2022/01/06 08:20:24;;;;;;;2.42;2.05;;;;;;;;;;5025668;28;20022;-32
2022/01/06 08:22:50;;;;;;;2.97;2.05;;;;;;;;;;5025323;28;20108;-35
2022/01/06 08:25:15;;;;;;;2.45;2.00;;;;;;;;;;5025828;28;20462;-30
2022/01/06 08:27:41;;;;;;;3.03;1.92;;;;;;;;;;5025771;28;20026;-30
2022/01/06 08:30:07;;;;;;;3.38;1.60;;;;;;;;;;5025671;28;20037;-33
2022/01/06 08:32:33;;;;;;;3.22;2.20;;;;;;;;;;5025069;28;20030;-34
2022/01/06 08:34:58;;;;;;;2.42;2.05;;;;;;;;;;5025755;28;20036;-29
2022/01/06 08:37:24;;;;;;;2.50;2.15;;;;;;;;;;5025352;28;20037;-32
2022/01/06 08:39:49;;;;;;;3.65;2.20;;;;;;;;;;5024979;28;20039;-31
2022/01/06 08:42:14;;;;;;;2.25;2.05;;;;;;;;;;5025415;28;20029;-28
2022/01/06 08:44:41;;;;;;;2.70;2.30;;;;;;;;;;5025222;28;20030;-30
2022/01/06 08:47:07;;;;;;;2.63;1.90;;;;;;;;;;5025412;28;20036;-36
2022/01/06 08:49:33;;;;;;;2.38;1.83;;;;;;;;;;5025250;28;20120;-32
2022/01/06 08:51:59;;;;;;;2.28;2.08;;;;;;;;;;5025759;28;20116;-31
2022/01/06 08:54:24;;;;;;;2.38;1.98;;;;;;;;;;5025530;28;20056;-33
2022/01/06 08:56:50;;;;;;;2.00;1.70;;;;;;;;;;5025409;28;20376;-33
2022/01/06 08:59:15;;;;;;;3.38;2.03;;;;;;;;;;5025703;28;20117;-31
2022/01/06 09:01:41;;;;;;;2.88;2.00;;;;;;;;;;5037459;28;20116;-31
2022/01/06 09:04:06;;;;;;;2.78;2.08;;;;;;;;;;5045416;28;20041;-33
2022/01/06 09:06:32;;;;;;;2.25;2.00;;;;;;;;;;5045215;28;20040;-29
2022/01/06 09:08:57;;;;;;;1.70;1.55;;;;;;;;;;5045193;28;20500;-32
2022/01/06 09:11:23;;;;;;;2.20;2.00;;;;;;;;;;5059867;28;20033;-31
2022/01/06 09:13:48;;;;;;;4.20;1.73;;;;;;;;;;5045699;28;20029;-34
2022/01/06 09:16:14;;;;;;;2.40;2.15;;;;;;;;;;5044170;28;20021;-31
2022/01/06 09:18:39;;;;;;;2.15;1.70;;;;;;;;;;5045036;28;20108;-31
2022/01/06 09:21:06;;;;;;;3.60;1.90;;;;;;;;;;5045138;28;20032;-30
2022/01/06 09:23:32;;;;;;;1.90;1.70;;;;;;;;;;5043568;28;20090;-29
2022/01/06 09:25:57;;;;;;;2.22;1.70;;;;;;;;;;5045430;28;20029;-33
2022/01/06 09:28:23;;;;;;;2.65;1.80;;;;;;;;;;5044761;28;20094;-32
2022/01/06 09:30:51;;;;;;;2.47;1.65;;;;;;;;;;5044480;28;20025;-32
2022/01/06 09:33:20;;;;;;;1.80;1.70;;;;;;;;;;5044576;28;20078;-35
2022/01/06 09:35:49;;;;;;;2.05;1.85;;;;;;;;;;5044817;28;20040;-30
2022/01/06 09:38:15;;;;;;;3.15;2.00;;;;;;;;;;5044970;28;20123;-31
2022/01/06 09:40:42;;;;;;;2.60;1.88;;;;;;;;;;5044739;28;20136;-31
2022/01/06 09:43:07;;;;;;;1.83;1.63;;;;;;;;;;5043265;28;20028;-30
2022/01/06 09:45:35;;;;;;;2.15;1.67;;;;;;;;;;5044328;28;20032;-35
2022/01/06 09:48:00;;;;;;;2.28;1.80;;;;;;;;;;5043562;28;20029;-31
2022/01/06 09:50:26;;;;;;;2.22;1.90;;;;;;;;;;5044264;28;20545;-34
2022/01/06 09:52:51;;;;;;;2.17;1.85;;;;;;;;;;5043165;28;20061;-31
2022/01/06 09:55:17;;;;;;;1.80;1.58;;;;;;;;;;5044195;28;20041;-33
2022/01/06 09:58:03;;;;;;;1.90;1.63;;;;;;;;;;5044536;28;20044;-33
2022/01/06 10:00:29;;;;;;;2.05;1.60;;;;;;;;;;5043383;28;20047;-30
2022/01/06 10:02:59;;;;;;;2.10;1.80;;;;;;;;;;5044627;28;20041;-31
2022/01/06 10:05:25;;;;;;;2.50;1.63;;;;;;;;;;5044169;28;20025;-33
2022/01/06 10:07:53;;;;;;;2.65;1.73;;;;;;;;;;5043829;28;20041;-32
2022/01/06 10:10:21;;;;;;;2.58;1.85;;;;;;;;;;5044003;28;20033;-31
2022/01/06 10:12:57;;;;;;;2.40;2.05;;;;;;;;;;5026713;28;20116;-30
2022/01/06 10:15:23;;;;;;;2.28;1.98;;;;;;;;;;5044176;28;20505;-34
2022/01/06 10:17:49;;;;;;;2.30;1.85;;;;;;;;;;5039220;28;20608;-33
2022/01/06 10:20:20;;;;;;;2.17;1.73;;;;;;;;;;5024104;28;20060;-32
2022/01/06 10:22:48;;;;;;;2.00;1.80;;;;;;;;;;5024066;28;20041;-31
2022/01/06 10:25:14;;;;;;;1.90;1.67;;;;;;;;;;5024173;28;20037;-33
2022/01/06 10:27:41;;;;;;;2.10;1.77;;;;;;;;;;5023708;28;20129;-30
2022/01/06 10:30:07;;;;;;;2.00;1.80;;;;;;;;;;5023823;28;20033;-32
2022/01/06 10:32:33;;;;;;;2.35;1.77;;;;;;;;;;5023558;28;20021;-34
2022/01/06 10:35:04;;;;;;;2.33;1.80;;;;;;;;;;5023419;28;20033;-28
2022/01/06 10:37:40;;;;;;;1.77;1.50;;;;;;;;;;5023771;28;20071;-31
2022/01/06 10:40:10;;;;;;;1.85;1.50;;;;;;;;;;5023674;28;20021;-31
2022/01/06 10:42:40;;;;;;;2.08;1.70;;;;;;;;;;5022901;28;20499;-31
2022/01/06 10:45:11;;;;;;;2.47;1.90;;;;;;;;;;5023500;28;20664;-29
2022/01/06 10:47:40;;;;;;;1.65;1.40;;;;;;;;;;5023867;28;20034;-37
2022/01/06 10:50:20;;;;;;;2.25;2.05;;;;;;;;;;5023711;28;20041;-28
2022/01/06 10:52:47;;;;;;;1.88;1.67;;;;;;;;;;5023026;28;20090;-31
2022/01/06 10:55:16;;;;;;;2.53;1.90;;;;;;;;;;5023967;28;20040;-31
2022/01/06 10:57:52;;;;;;;2.00;1.80;;;;;;;;;;5023112;28;20041;-34
2022/01/06 11:00:18;;;;;;;2.85;2.28;;;;;;;;;;5023270;28;20103;-33
2022/01/06 11:02:43;;;;;;;2.63;1.73;;;;;;;;;;5021638;28;20033;-35
2022/01/06 11:05:09;;;;;;;2.08;1.85;;;;;;;;;;5023038;28;20518;-31
2022/01/06 11:07:35;;;;;;;1.58;1.40;;;;;;;;;;5021936;28;20029;-28
2022/01/06 11:10:02;;;;;;;1.90;1.60;;;;;;;;;;5005588;28;20033;-32
2022/01/06 11:12:30;;;;;;;2.30;1.77;;;;;;;;;;5022755;28;20079;-33
2022/01/06 11:14:56;;;;;;;2.05;1.70;;;;;;;;;;5021763;28;20030;-33
2022/01/06 11:17:23;;;;;;;1.60;1.50;;;;;;;;;;5023224;28;20041;-28
2022/01/06 11:19:49;;;;;;;1.92;1.45;;;;;;;;;;5023399;28;20035;-34
2022/01/06 11:22:15;;;;;;;1.50;1.40;;;;;;;;;;5021322;28;20029;-28
2022/01/06 11:24:40;;;;;;;2.03;1.65;;;;;;;;;;5023203;28;20095;-33
2022/01/06 11:27:08;;;;;;;1.52;1.40;;;;;;;;;;5005096;28;20037;-34
2022/01/06 11:29:39;;;;;;;2.47;1.50;;;;;;;;;;5022997;28;20507;-33
2022/01/06 11:32:16;;;;;;;1.63;1.33;;;;;;;;;;5022865;28;20030;-31
2022/01/06 11:34:42;;;;;;;1.90;1.60;;;;;;;;;;5022996;28;20044;-32
2022/01/06 11:37:11;;;;;;;1.85;1.60;;;;;;;;;;5022813;28;20687;-31
2022/01/06 11:39:37;;;;;;;2.22;1.42;;;;;;;;;;5022793;28;20095;-31
2022/01/06 11:42:25;;;;;;;2.00;1.75;;;;;;;;;;5023123;28;20033;-32
2022/01/06 11:44:54;;;;;;;1.75;1.63;;;;;;;;;;5022864;28;20030;-32
2022/01/06 11:47:33;;;;;;;1.65;1.35;;;;;;;;;;5022912;28;20029;-29
2022/01/06 11:50:25;;;;;;;1.77;1.48;;;;;;;;;;5022876;28;20482;-30
2022/01/06 11:52:51;;;;;;;1.85;1.70;;;;;;;;;;5022832;28;20025;-32
2022/01/06 11:55:17;;;;;;;2.97;1.60;;;;;;;;;;5022874;28;20112;-29
2022/01/06 11:57:44;;;;;;;3.13;1.50;;;;;;;;;;5022737;28;20120;-28
2022/01/06 12:00:23;;;;;;;1.85;1.42;;;;;;;;;;5022676;28;20029;-30
2022/01/06 12:03:05;;;;;;;1.90;1.50;;;;;;;;;;5022709;28;20116;-32
2022/01/06 12:05:49;;;;;;;1.38;1.25;;;;;;;;;;5022243;28;20087;-35
2022/01/06 12:08:32;;;;;;;2.25;1.70;;;;;;;;;;5022592;28;20554;-31
2022/01/06 12:10:58;;;;;;;1.77;1.55;;;;;;;;;;5022648;28;20129;-30
2022/01/06 12:13:24;;;;;;;2.28;1.70;;;;;;;;;;5022606;28;20548;-32
2022/01/06 12:15:50;;;;;;;1.80;1.50;;;;;;;;;;5023694;28;20408;-32
2022/01/06 12:18:28;;;;;;;1.50;1.38;;;;;;;;;;5026015;28;20035;-28
2022/01/06 12:20:56;;;;;;;1.70;1.50;;;;;;;;;;5026459;28;20041;-33
2022/01/06 12:23:21;;;;;;;1.75;1.38;;;;;;;;;;5025460;28;20030;-30
2022/01/06 12:25:57;;;;;;;1.67;1.30;;;;;;;;;;5026291;28;20171;-33
2022/01/06 12:28:22;;;;;;;2.05;1.35;;;;;;;;;;5025679;28;20026;-29
2022/01/06 12:30:48;;;;;;;2.00;1.25;;;;;;;;;;5026099;28;20470;-30
2022/01/06 12:33:14;;;;;;;1.65;1.35;;;;;;;;;;5025567;28;20029;-33
2022/01/06 12:35:48;;;;;;;2.20;2.00;;;;;;;;;;5026061;28;20036;-34
2022/01/06 12:38:13;;;;;;;2.70;2.05;;;;;;;;;;5025943;28;20041;-33
2022/01/06 12:40:43;;;;;;;2.63;1.95;;;;;;;;;;5025301;28;20035;-28
2022/01/06 12:43:19;;;;;;;2.10;1.90;;;;;;;;;;5026068;28;20023;-28
2022/01/06 12:45:44;;;;;;;2.67;2.20;;;;;;;;;;5025678;28;20025;-30
2022/01/06 12:48:11;;;;;;;1.70;1.60;;;;;;;;;;5025874;28;20025;-31
2022/01/06 12:50:48;;;;;;;2.20;2.00;;;;;;;;;;5025438;28;20537;-32
2022/01/06 12:53:34;;;;;;;2.85;2.20;;;;;;;;;;5024294;28;20250;-32
2022/01/06 12:56:00;;;;;;;2.13;1.92;;;;;;;;;;5025935;28;20037;-33
2022/01/06 12:58:32;;;;;;;2.13;1.92;;;;;;;;;;5024995;28;20033;-30
2022/01/06 13:01:03;;;;;;;2.75;2.08;;;;;;;;;;5025705;28;20041;-29
2022/01/06 13:03:30;;;;;;;2.75;2.10;;;;;;;;;;5025439;28;20033;-29
2022/01/06 13:05:56;;;;;;;2.13;1.80;;;;;;;;;;5025027;28;20029;-35
2022/01/06 13:08:22;;;;;;;2.00;1.80;;;;;;;;;;5025031;28;20061;-34
2022/01/06 13:10:48;;;;;;;2.40;1.88;;;;;;;;;;5025273;28;20482;-30
2022/01/06 13:13:13;;;;;;;2.25;2.05;;;;;;;;;;5025638;28;20033;-34
2022/01/06 13:15:38;;;;;;;1.98;1.77;;;;;;;;;;5024708;28;20071;-33
2022/01/06 13:18:04;;;;;;;2.45;2.05;;;;;;;;;;5025056;28;20064;-33
2022/01/06 13:20:36;;;;;;;3.10;2.05;;;;;;;;;;5024841;28;20034;-30
2022/01/06 13:23:41;;;;;;;2.13;1.70;;;;;;;;;;5024915;28;20032;-32
2022/01/06 13:26:07;;;;;;;2.00;1.80;;;;;;;;;;5024965;28;20044;-31
2022/01/06 13:28:33;;;;;;;1.55;1.45;;;;;;;;;;5024932;28;20091;-31
2022/01/06 13:30:59;;;;;;;2.58;1.85;;;;;;;;;;5023490;28;20050;-32
2022/01/06 13:33:27;;;;;;;2.35;1.92;;;;;;;;;;5024515;28;20032;-31
2022/01/06 13:35:54;;;;;;;1.60;1.50;;;;;;;;;;5024495;28;20026;-33
2022/01/06 13:38:25;;;;;;;2.05;1.80;;;;;;;;;;5024020;28;20038;-29
2022/01/06 13:40:52;;;;;;;2.25;2.00;;;;;;;;;;5024524;28;20474;-35
2022/01/06 13:43:18;;;;;;;2.05;1.85;;;;;;;;;;5024159;28;20057;-35
2022/01/06 13:45:47;;;;;;;2.10;1.90;;;;;;;;;;5024689;28;20037;-34
2022/01/06 13:51:07;;;;;;;3.00;2.70;;;;;;;;;;5024767;28;20045;-35
2022/01/06 13:53:36;;;;;;;2.80;2.55;;;;;;;;;;5024342;28;20026;-33
2022/01/06 13:56:12;;;;;;;2.92;2.33;;;;;;;;;;5024514;28;20060;-35
2022/01/06 13:58:39;;;;;;;2.60;2.40;;;;;;;;;;5024303;28;20021;-32
2022/01/06 14:01:05;;;;;;;2.05;1.90;;;;;;;;;;5024407;28;20415;-33
2022/01/06 14:03:32;;;;;;;3.83;2.38;;;;;;;;;;5024370;28;20466;-33
2022/01/06 14:06:02;;;;;;;2.60;2.13;;;;;;;;;;5023668;28;20025;-36
2022/01/06 14:08:27;;;;;;;2.90;2.60;;;;;;;;;;5023722;28;20049;-35
2022/01/06 14:10:53;;;;;;;2.60;2.40;;;;;;;;;;5024353;28;20044;-36
2022/01/06 14:13:18;;;;;;;2.60;2.40;;;;;;;;;;5023973;28;20022;-30
2022/01/06 14:15:45;;;;;;;2.60;2.38;;;;;;;;;;5024175;28;20032;-34
2022/01/06 14:18:12;;;;;;;2.53;2.33;;;;;;;;;;5023961;28;20037;-33
2022/01/06 14:20:37;;;;;;;2.30;2.10;;;;;;;;;;5023600;28;20335;-32
2022/01/06 14:23:03;;;;;;;2.50;2.30;;;;;;;;;;5023725;28;20029;-31
2022/01/06 14:25:28;;;;;;;2.60;2.40;;;;;;;;;;5024071;28;20507;-30
2022/01/06 14:27:54;;;;;;;2.63;2.42;;;;;;;;;;5023936;28;20108;-31
2022/01/06 14:30:23;;;;;;;2.30;2.10;;;;;;;;;;5023491;28;20040;-34
2022/01/06 14:32:50;;;;;;;2.97;2.67;;;;;;;;;;5023574;28;20060;-32
2022/01/06 14:35:15;;;;;;;2.80;2.30;;;;;;;;;;5023537;28;20028;-33
2022/01/06 14:37:41;;;;;;;2.45;2.25;;;;;;;;;;5022931;28;20029;-29
2022/01/06 14:40:07;;;;;;;2.55;2.33;;;;;;;;;;5022992;28;20052;-32
2022/01/06 14:42:32;;;;;;;2.58;2.38;;;;;;;;;;5022853;28;20487;-33
2022/01/06 14:44:58;;;;;;;2.67;2.38;;;;;;;;;;5023510;28;20087;-29
2022/01/06 14:47:23;;;;;;;2.67;2.40;;;;;;;;;;5022918;28;20399;-31
2022/01/06 14:49:49;;;;;;;2.53;2.33;;;;;;;;;;5023587;28;20037;-28
2022/01/06 14:52:15;;;;;;;3.35;2.40;;;;;;;;;;5023370;28;20108;-31
2022/01/06 14:54:40;;;;;;;2.47;2.22;;;;;;;;;;5022729;28;20102;-32
2022/01/06 14:57:06;;;;;;;2.83;2.50;;;;;;;;;;5023305;28;20044;-30